Time;durP1;ratioP1;P1;durP2;ratioP2;P2;SDS_P1;SDS_P2;PMS_P1;PMS_P2;Temp;Humidity;BMP_temperature;BMP_pressure;BME280_temperature;BME280_humidity;BME280_pressure;Samples;Min_cycle;Max_cycle;Signal;HPM_P1;HPM_P2
2021/12/12 00:01:28;;;;;;;10.00;6.53;;;3.90;1.00;4.90;101266.00;;;;5086569;28;20443;-79
2021/12/12 00:04:09;;;;;;;10.70;6.67;;;3.90;1.00;4.90;101269.00;;;;5065684;28;20521;-79
2021/12/12 00:06:43;;;;;;;7.70;5.77;;;3.90;1.00;4.90;101278.00;;;;5088011;28;20468;-81
2021/12/12 00:09:17;;;;;;;8.40;6.20;;;4.00;1.00;4.90;101288.00;;;;5079028;28;20490;-78
2021/12/12 00:11:47;;;;;;;8.60;5.47;;;4.00;1.00;4.40;101229.00;;;;5083106;28;20481;-80
2021/12/12 00:14:20;;;;;;;10.43;6.10;;;3.90;1.00;4.90;101286.00;;;;5091981;28;20518;-79
2021/12/12 00:16:53;;;;;;;11.23;5.60;;;3.90;1.00;4.90;101300.00;;;;5100495;28;20478;-79
2021/12/12 00:19:27;;;;;;;8.20;5.60;;;3.90;1.00;4.80;101295.00;;;;5082139;28;20508;-78
2021/12/12 00:22:01;;;;;;;11.73;5.80;;;3.90;1.00;4.70;101302.00;;;;5079839;28;20507;-79
2021/12/12 00:24:30;;;;;;;8.27;5.50;;;3.80;1.00;4.70;101267.00;;;;5098166;28;20459;-79
2021/12/12 00:27:00;;;;;;;9.10;5.70;;;3.80;1.00;4.70;101213.00;;;;5099491;28;20525;-80
2021/12/12 00:29:29;;;;;;;6.13;4.93;;;3.70;1.00;4.70;101300.00;;;;5082942;28;20462;-78
2021/12/12 00:32:02;;;;;;;9.07;5.80;;;3.70;1.00;4.40;101308.00;;;;5082374;28;20455;-79
2021/12/12 00:34:41;;;;;;;9.33;5.70;;;3.70;1.00;4.60;101248.00;;;;5099061;28;20420;-78
2021/12/12 00:37:12;;;;;;;14.10;6.03;;;3.60;1.00;4.60;101221.00;;;;5099445;28;20518;-78
2021/12/12 00:39:47;;;;;;;7.73;5.77;;;3.60;1.00;4.50;101299.00;;;;5082854;28;20471;-79
2021/12/12 00:42:21;;;;;;;7.87;5.50;;;3.50;1.00;4.60;101287.00;;;;5099797;28;20497;-80
2021/12/12 00:44:55;;;;;;;8.50;5.70;;;3.50;1.00;4.50;101290.00;;;;5083383;28;20473;-79
2021/12/12 00:47:24;;;;;;;10.67;5.80;;;3.50;1.00;4.50;101252.00;;;;5081272;28;20461;-79
2021/12/12 00:50:11;;;;;;;11.80;6.63;;;3.50;1.00;4.50;101306.00;;;;5082646;28;20494;-79
2021/12/12 00:52:44;;;;;;;13.67;6.57;;;3.50;1.00;4.50;101302.00;;;;5062939;28;20482;-80
2021/12/12 00:55:13;;;;;;;11.97;5.70;;;3.50;1.00;4.20;101282.00;;;;5082128;28;20461;-81
2021/12/12 00:57:42;;;;;;;8.40;6.03;;;3.50;1.00;4.50;101315.00;;;;5089622;28;20467;-78
2021/12/12 01:00:14;;;;;;;9.83;6.10;;;3.50;1.00;4.50;101323.00;;;;5096352;28;20478;-79
2021/12/12 01:02:43;;;;;;;9.53;6.30;;;3.50;1.00;4.50;101313.00;;;;5096732;28;20550;-79
2021/12/12 01:05:14;;;;;;;10.00;6.50;;;3.50;1.00;4.50;101331.00;;;;5097329;28;20471;-78
2021/12/12 01:07:47;;;;;;;10.53;6.17;;;3.50;1.00;4.40;101321.00;;;;5098794;28;20445;-78
2021/12/12 01:10:24;;;;;;;10.40;6.13;;;3.50;1.00;4.50;101315.00;;;;5098417;28;20451;-78
2021/12/12 01:12:55;;;;;;;14.13;6.80;;;3.40;1.00;4.40;101322.00;;;;5093003;22;20499;-76
2021/12/12 01:15:30;;;;;;;10.90;7.00;;;3.40;1.00;4.50;101312.00;;;;5079826;28;20447;-76
2021/12/12 01:18:07;;;;;;;10.43;6.27;;;3.40;1.00;4.50;101339.00;;;;5074330;28;20466;-76
2021/12/12 01:20:40;;;;;;;11.93;7.13;;;3.40;1.00;4.50;101326.00;;;;5073720;28;20451;-76
2021/12/12 01:23:18;;;;;;;13.30;7.93;;;3.40;1.00;4.50;101295.00;;;;5056241;28;20519;-77
2021/12/12 01:25:50;;;;;;;12.43;7.03;;;3.40;1.00;4.60;101284.00;;;;5036275;28;20452;-78
2021/12/12 01:28:32;;;;;;;12.67;7.37;;;3.40;1.00;4.60;101281.00;;;;5037863;28;20443;-77
2021/12/12 01:31:07;;;;;;;9.03;7.50;;;3.40;1.00;4.70;101352.00;;;;5058207;28;20511;-78
2021/12/12 01:33:38;;;;;;;11.70;8.17;;;3.50;1.00;4.60;101352.00;;;;5036049;28;20574;-77
2021/12/12 01:36:23;;;;;;;11.57;7.90;;;3.40;1.00;4.40;67261.00;;;;5051029;28;20591;-79
2021/12/12 01:38:58;;;;;;;10.57;8.43;;;3.30;1.00;4.40;101304.00;;;;5037410;28;20468;-78
2021/12/12 01:41:36;;;;;;;11.13;8.33;;;3.30;1.00;4.40;101169.00;;;;5058885;28;20456;-77
2021/12/12 01:44:12;;;;;;;11.03;8.30;;;3.30;1.00;52.70;158546.00;;;;5045107;28;20475;-76
2021/12/12 01:46:49;;;;;;;13.70;8.67;;;3.20;1.00;4.20;101341.00;;;;5032418;28;20467;-76
2021/12/12 01:49:28;;;;;;;11.43;8.57;;;3.20;1.00;4.10;101180.00;;;;5050134;28;21211;-77
2021/12/12 01:51:59;;;;;;;12.77;8.10;;;3.10;1.00;217.30;158463.00;;;;5037258;28;20551;-77
2021/12/12 01:54:42;;;;;;;13.77;8.93;;;3.10;1.00;4.10;101310.00;;;;5054686;28;20454;-77
2021/12/12 01:57:20;;;;;;;13.70;8.73;;;3.00;1.00;4.10;101155.00;;;;5036021;28;20526;-78
2021/12/12 01:59:50;;;;;;;14.73;9.20;;;3.00;1.00;217.30;158431.00;;;;5052254;28;20857;-77
2021/12/12 02:02:24;;;;;;;14.70;9.00;;;3.00;1.00;4.10;101335.00;;;;5051560;28;20479;-77
2021/12/12 02:04:59;;;;;;;12.20;8.90;;;3.00;1.00;4.00;101286.00;;;;5052110;28;20456;-77
2021/12/12 02:07:31;;;;;;;17.03;10.20;;;2.90;1.00;52.70;158412.00;;;;5056031;28;20801;-77
2021/12/12 02:10:07;;;;;;;11.00;8.20;;;2.90;1.00;4.00;101309.00;;;;5054395;28;20440;-76
2021/12/12 02:12:40;;;;;;;13.40;9.30;;;3.00;1.00;3.90;101295.00;;;;5033675;28;20999;-78
2021/12/12 02:15:12;;;;;;;16.00;9.70;;;2.90;1.00;217.30;158108.00;;;;5042722;28;20519;-77
2021/12/12 02:17:46;;;;;;;17.40;8.70;;;2.80;1.00;217.30;158386.00;;;;5034625;28;20472;-75
2021/12/12 02:20:31;;;;;;;15.40;9.60;;;2.80;1.00;3.90;101333.00;;;;5049692;28;20484;-77
2021/12/12 02:23:10;;;;;;;13.23;9.00;;;2.80;1.00;3.90;101359.00;;;;5043056;28;20475;-75
2021/12/12 02:36:51;;;;;;;15.53;9.30;;;2.90;1.00;3.90;101343.00;;;;5033830;28;20978;-76
2021/12/12 02:39:24;;;;;;;15.07;10.63;;;2.90;1.00;3.90;101352.00;;;;5052136;28;21018;-75
2021/12/12 02:41:58;;;;;;;16.37;10.60;;;2.80;1.00;4.00;101355.00;;;;5052300;28;21002;-75
2021/12/12 02:44:31;;;;;;;13.60;9.50;;;2.90;1.00;4.00;101341.00;;;;5051878;28;20456;-75
2021/12/12 02:47:09;;;;;;;13.53;10.00;;;2.90;1.00;3.90;101306.00;;;;5050563;28;20475;-76
2021/12/12 02:49:42;;;;;;;15.00;10.13;;;2.90;1.00;4.00;101336.00;;;;5052184;28;20451;-76
2021/12/12 02:52:16;;;;;;;17.00;10.40;;;2.90;1.00;4.00;101327.00;;;;5052134;28;20486;-76
2021/12/12 02:54:46;;;;;;;19.60;11.20;;;2.90;1.00;4.00;101323.00;;;;5052082;28;20452;-77
2021/12/12 02:57:16;;;;;;;15.03;11.03;;;2.90;1.00;4.10;101337.00;;;;5051074;28;20456;-76
2021/12/12 02:59:50;;;;;;;15.53;11.37;;;2.90;1.00;4.20;101337.00;;;;5051617;28;20503;-77
2021/12/12 03:02:25;;;;;;;16.40;11.23;;;2.90;1.00;4.20;101334.00;;;;5049671;28;20479;-76
2021/12/12 03:04:57;;;;;;;15.33;10.70;;;2.90;1.00;4.20;101334.00;;;;5049138;28;20451;-80
2021/12/12 03:07:26;;;;;;;12.40;9.57;;;2.90;1.00;4.20;101332.00;;;;5052032;28;20441;-76
2021/12/12 03:09:59;;;;;;;14.47;10.80;;;2.90;1.00;4.30;101335.00;;;;5052332;28;20436;-75
2021/12/12 03:12:34;;;;;;;17.77;11.40;;;2.80;1.00;4.30;101335.00;;;;5051510;28;20533;-76
2021/12/12 03:15:09;;;;;;;13.60;10.70;;;2.90;1.00;4.30;101324.00;;;;5052000;28;20452;-77
2021/12/12 03:17:40;;;;;;;13.57;9.97;;;2.90;1.00;4.30;101336.00;;;;5050708;28;20463;-76
2021/12/12 03:20:23;;;;;;;15.97;11.70;;;2.80;1.00;4.30;101340.00;;;;5034729;28;20455;-76
2021/12/12 03:22:54;;;;;;;20.00;12.07;;;2.80;1.00;4.30;101329.00;;;;5052055;28;20477;-76
2021/12/12 03:25:26;;;;;;;11.83;10.33;;;2.80;1.00;4.30;101329.00;;;;5051546;28;20440;-77
2021/12/12 03:27:54;;;;;;;19.07;10.87;;;2.80;1.00;4.30;101337.00;;;;5032691;28;20423;-76
2021/12/12 03:30:23;;;;;;;16.30;11.70;;;2.70;1.00;4.40;101321.00;;;;5055073;28;20547;-77
2021/12/12 03:32:52;;;;;;;16.27;11.13;;;2.80;1.00;4.40;101337.00;;;;5052799;28;20475;-75
2021/12/12 03:35:21;;;;;;;14.63;11.10;;;2.90;1.00;4.50;101311.00;;;;5044300;28;21069;-75
2021/12/12 03:37:49;;;;;;;15.40;11.20;;;2.80;1.00;4.50;101329.00;;;;5060117;28;20459;-77
2021/12/12 03:40:25;;;;;;;14.73;10.33;;;2.90;1.00;4.60;101334.00;;;;5048599;28;20487;-78
2021/12/12 03:42:57;;;;;;;14.00;11.53;;;3.00;1.00;4.70;101358.00;;;;5050154;28;20998;-76
2021/12/12 03:45:27;;;;;;;16.10;11.80;;;3.10;1.00;4.70;101345.00;;;;5032002;28;20460;-76
2021/12/12 03:48:02;;;;;;;18.67;12.33;;;3.20;1.00;4.80;101351.00;;;;5060655;28;20428;-76
2021/12/12 03:50:36;;;;;;;15.13;11.70;;;3.30;1.00;4.90;101344.00;;;;5061858;28;20459;-76
2021/12/12 03:53:05;;;;;;;15.70;11.93;;;3.30;1.00;4.90;101363.00;;;;5044457;28;20474;-75
2021/12/12 03:55:36;;;;;;;18.00;12.70;;;3.30;1.00;4.90;101349.00;;;;5061362;28;20448;-75
2021/12/12 03:58:08;;;;;;;15.03;11.70;;;3.30;1.00;5.00;101343.00;;;;5060401;28;20467;-76
2021/12/12 04:00:42;;;;;;;16.27;12.50;;;3.30;1.00;5.20;101357.00;;;;5061653;28;20982;-75
2021/12/12 04:03:11;;;;;;;17.03;11.97;;;3.40;1.00;5.30;101379.00;;;;5051402;28;20490;-76
2021/12/12 04:05:46;;;;;;;14.07;11.80;;;3.50;1.00;5.10;101329.00;;;;5043750;28;20941;-75
2021/12/12 04:08:14;;;;;;;16.70;11.80;;;3.60;1.00;5.20;101357.00;;;;5045631;28;20432;-77
2021/12/12 04:10:44;;;;;;;15.37;11.90;;;3.50;1.00;5.20;101351.00;;;;5051901;28;20542;-75
2021/12/12 04:13:15;;;;;;;14.10;11.23;;;3.50;1.00;5.20;101364.00;;;;5058023;28;20997;-76
2021/12/12 04:15:43;;;;;;;15.53;10.73;;;3.60;1.00;5.20;101356.00;;;;5075751;28;20468;-77
2021/12/12 04:18:12;;;;;;;15.87;11.10;;;3.60;1.00;5.20;101346.00;;;;5061201;28;20429;-76
2021/12/12 04:20:40;;;;;;;14.30;11.63;;;3.60;1.00;5.20;101368.00;;;;5062176;28;20460;-78
2021/12/12 04:23:15;;;;;;;18.73;11.20;;;3.60;1.00;5.30;101368.00;;;;5079509;28;20921;-77
2021/12/12 04:25:45;;;;;;;13.50;11.13;;;3.60;1.00;5.30;101365.00;;;;5079602;28;20412;-79
2021/12/12 04:28:14;;;;;;;14.03;11.70;;;3.60;1.00;5.20;101374.00;;;;5080782;28;20428;-77
2021/12/12 04:30:43;;;;;;;13.27;11.57;;;3.60;1.00;5.20;101366.00;;;;5080405;28;20523;-76
2021/12/12 04:33:12;;;;;;;16.40;10.87;;;3.60;1.00;5.30;101377.00;;;;5079572;28;20448;-77
2021/12/12 04:35:41;;;;;;;17.10;11.23;;;3.70;1.00;5.40;101387.00;;;;5079035;28;20458;-75
2021/12/12 04:38:09;;;;;;;14.60;11.00;;;3.70;1.00;5.30;101379.00;;;;5080073;28;20439;-75
2021/12/12 04:40:38;;;;;;;14.70;11.53;;;3.80;1.00;5.40;101352.00;;;;5066269;28;20436;-76
2021/12/12 04:43:07;;;;;;;13.10;10.57;;;3.80;1.00;5.50;101377.00;;;;5055579;28;20468;-76
2021/12/12 04:45:56;;;;;;;13.60;11.33;;;3.90;1.00;5.60;101388.00;;;;5055650;28;20494;-75
2021/12/12 04:51:20;;;;;;;11.07;9.97;;;3.90;1.00;5.60;101378.00;;;;5047952;28;20464;-77
2021/12/12 04:53:53;;;;;;;14.57;10.60;;;4.00;1.00;5.70;101377.00;;;;5055164;28;21064;-77
2021/12/12 04:56:28;;;;;;;16.37;11.17;;;4.00;1.00;5.80;101392.00;;;;5052692;28;20846;-75
2021/12/12 04:59:04;;;;;;;15.20;10.37;;;4.00;1.00;5.70;101397.00;;;;5054234;28;20460;-75
2021/12/12 05:01:38;;;;;;;12.13;9.83;;;4.00;1.00;5.70;101399.00;;;;5053665;28;20451;-76
2021/12/12 05:04:12;;;;;;;16.80;9.57;;;4.00;1.00;5.70;101377.00;;;;5054065;28;21025;-75
2021/12/12 05:06:47;;;;;;;15.77;9.93;;;4.00;1.00;5.60;101391.00;;;;5053556;28;20456;-76
2021/12/12 05:09:22;;;;;;;15.30;9.40;;;4.00;1.00;5.70;101370.00;;;;5054395;28;20836;-77
2021/12/12 05:11:57;;;;;;;13.43;10.23;;;4.00;1.00;5.70;101388.00;;;;5053339;28;20829;-76
2021/12/12 05:14:36;;;;;;;11.50;8.77;;;4.00;1.00;5.80;101395.00;;;;5054197;28;20514;-78
2021/12/12 05:17:09;;;;;;;15.63;9.10;;;4.10;1.00;5.80;101346.00;;;;5024698;28;20455;-77
2021/12/12 05:19:43;;;;;;;16.37;9.67;;;4.10;1.00;5.70;101395.00;;;;5037430;28;20479;-79
2021/12/12 05:22:17;;;;;;;10.23;7.97;;;4.10;1.00;5.70;101389.00;;;;5046538;28;20472;-76
2021/12/12 05:24:52;;;;;;;15.87;7.83;;;4.10;1.00;5.70;101391.00;;;;5034107;28;20466;-77
2021/12/12 05:27:25;;;;;;;11.53;8.10;;;4.10;1.00;5.60;101392.00;;;;5052852;28;20459;-76
2021/12/12 05:30:03;;;;;;;16.10;7.53;;;4.10;1.00;5.70;101397.00;;;;5043457;28;20835;-76
2021/12/12 05:32:33;;;;;;;14.47;7.80;;;4.20;1.00;5.70;101399.00;;;;5050905;28;20475;-76
2021/12/12 05:35:04;;;;;;;11.13;8.10;;;4.20;1.00;5.80;101409.00;;;;5045814;28;20455;-76
2021/12/12 05:37:33;;;;;;;11.33;7.53;;;4.20;1.00;5.60;101394.00;;;;5054120;28;20432;-77
2021/12/12 05:40:06;;;;;;;14.67;8.43;;;4.20;1.00;5.60;101389.00;;;;5036075;28;20476;-76
2021/12/12 05:42:35;;;;;;;14.70;7.87;;;4.10;1.00;5.40;101392.00;;;;5052324;28;20482;-80
2021/12/12 05:45:08;;;;;;;11.97;7.60;;;4.10;1.00;5.40;101394.00;;;;5035184;28;20454;-76
2021/12/12 05:47:38;;;;;;;11.77;7.50;;;4.10;1.00;5.40;101398.00;;;;5054890;28;20456;-76
2021/12/12 05:50:10;;;;;;;9.30;7.27;;;4.10;1.00;5.40;101417.00;;;;5045614;28;20443;-76
2021/12/12 05:52:39;;;;;;;11.17;7.03;;;4.00;1.00;5.30;101400.00;;;;5053198;28;20478;-76
2021/12/12 05:55:09;;;;;;;12.13;8.13;;;4.00;1.00;5.30;101384.00;;;;5056014;28;20453;-76
2021/12/12 05:57:38;;;;;;;9.07;6.97;;;4.00;1.00;5.20;101385.00;;;;5060099;28;20444;-77
2021/12/12 06:00:14;;;;;;;11.73;7.20;;;4.00;1.00;5.20;101398.00;;;;5053340;28;20482;-78
2021/12/12 06:02:43;;;;;;;11.30;7.60;;;4.00;1.00;5.30;101397.00;;;;5034074;28;20491;-76
2021/12/12 06:05:12;;;;;;;10.17;6.17;;;4.00;1.00;5.30;101396.00;;;;5052494;28;20498;-77
2021/12/12 06:07:41;;;;;;;14.83;6.80;;;4.00;1.00;5.30;101395.00;;;;5035261;28;20443;-77
2021/12/12 06:10:16;;;;;;;10.73;7.00;;;4.00;1.00;5.30;101400.00;;;;5052803;28;20440;-77
2021/12/12 06:12:48;;;;;;;12.87;7.60;;;4.00;1.00;5.30;101381.00;;;;5034943;28;20476;-77
2021/12/12 06:15:22;;;;;;;7.77;6.60;;;4.00;1.00;5.20;101404.00;;;;5048760;28;20452;-77
2021/12/12 06:17:52;;;;;;;8.70;6.20;;;4.00;1.00;5.20;101391.00;;;;5047252;28;20457;-76
2021/12/12 06:20:21;;;;;;;9.93;6.90;;;4.00;1.00;5.20;101388.00;;;;5048513;28;20994;-76
2021/12/12 06:22:51;;;;;;;11.60;6.90;;;4.00;1.00;5.30;101402.00;;;;5038066;28;20472;-78
2021/12/12 06:25:20;;;;;;;11.37;7.03;;;4.00;1.00;5.20;101376.00;;;;5032737;28;20460;-77
2021/12/12 06:27:48;;;;;;;9.93;6.80;;;4.00;1.00;5.20;101398.00;;;;5014449;28;20527;-78
2021/12/12 06:30:22;;;;;;;7.43;6.13;;;4.10;1.00;5.30;101404.00;;;;5034959;28;20452;-76
2021/12/12 06:32:53;;;;;;;10.60;6.60;;;4.00;1.00;5.40;101404.00;;;;5052432;28;20467;-77
2021/12/12 06:35:22;;;;;;;11.30;6.93;;;4.20;1.00;5.40;101419.00;;;;5048084;28;20827;-76
2021/12/12 06:37:51;;;;;;;10.90;6.63;;;4.20;1.00;5.50;101385.00;;;;5052115;28;20456;-76
2021/12/12 06:40:22;;;;;;;8.17;6.00;;;4.20;1.00;5.40;101413.00;;;;5032376;28;20477;-77
2021/12/12 06:42:53;;;;;;;12.63;6.03;;;4.20;1.00;5.40;101410.00;;;;5027027;28;20476;-76
2021/12/12 06:45:24;;;;;;;8.80;6.30;;;4.20;1.00;5.50;101413.00;;;;5053928;28;20860;-76
2021/12/12 06:47:52;;;;;;;9.73;6.83;;;4.10;1.00;5.40;101409.00;;;;5048509;28;20486;-77
2021/12/12 06:50:23;;;;;;;9.77;6.40;;;4.10;1.00;5.40;101420.00;;;;5045146;28;20478;-76
2021/12/12 06:52:52;;;;;;;9.40;7.53;;;4.10;1.00;5.40;101423.00;;;;5029957;28;20544;-76
2021/12/12 06:55:22;;;;;;;9.17;6.43;;;4.10;1.00;5.30;101410.00;;;;5047129;28;20421;-76
2021/12/12 06:57:51;;;;;;;11.47;6.30;;;4.10;1.00;5.30;101414.00;;;;5045659;28;20471;-77
2021/12/12 07:00:25;;;;;;;12.03;6.93;;;4.10;1.00;5.30;101416.00;;;;5056375;28;20472;-77
2021/12/12 07:02:55;;;;;;;11.20;6.00;;;4.10;1.00;5.30;101417.00;;;;5055769;28;20505;-76
2021/12/12 07:05:27;;;;;;;14.60;6.87;;;4.10;1.00;5.40;101425.00;;;;5052777;28;20452;-76
2021/12/12 07:07:57;;;;;;;9.60;6.87;;;4.10;1.00;5.40;101416.00;;;;5052535;28;20453;-75
2021/12/12 07:10:30;;;;;;;14.87;7.37;;;4.10;1.00;5.30;101430.00;;;;5053347;28;20428;-75
2021/12/12 07:12:58;;;;;;;13.57;7.23;;;4.20;1.00;5.30;101431.00;;;;5053332;28;20474;-76
2021/12/12 07:15:32;;;;;;;9.03;6.97;;;4.10;1.00;5.40;101421.00;;;;5052991;28;20440;-78
2021/12/12 07:18:10;;;;;;;9.53;6.90;;;4.10;1.00;5.40;101419.00;;;;5039071;28;20456;-77
2021/12/12 07:20:38;;;;;;;11.67;7.10;;;4.20;1.00;5.40;101429.00;;;;5061199;28;20458;-78
2021/12/12 07:23:12;;;;;;;10.57;6.50;;;4.10;1.00;5.40;101429.00;;;;5054627;28;20479;-76
2021/12/12 07:25:43;;;;;;;10.27;6.80;;;4.20;1.00;5.50;101437.00;;;;5051350;28;20444;-76
2021/12/12 07:28:13;;;;;;;12.30;7.00;;;4.20;1.00;5.50;101432.00;;;;5052088;28;20456;-77
2021/12/12 07:30:43;;;;;;;11.20;6.97;;;4.20;1.00;5.50;101438.00;;;;5052573;28;20451;-76
2021/12/12 07:33:13;;;;;;;9.30;6.80;;;4.30;1.00;5.50;101445.00;;;;5034558;28;20817;-78
2021/12/12 07:35:44;;;;;;;9.80;6.50;;;4.30;1.00;5.60;101452.00;;;;5048853;28;20464;-78
2021/12/12 07:38:16;;;;;;;11.67;6.93;;;4.30;1.00;5.60;101441.00;;;;5051372;28;20459;-76
2021/12/12 07:40:46;;;;;;;8.17;6.33;;;4.30;1.00;5.70;101451.00;;;;5027990;28;21007;-76
2021/12/12 07:43:15;;;;;;;11.60;7.80;;;4.40;1.00;5.70;101442.00;;;;5052315;28;20479;-76
2021/12/12 07:45:45;;;;;;;10.00;7.07;;;4.40;1.00;5.80;101431.00;;;;5059812;28;20450;-76
2021/12/12 07:48:14;;;;;;;13.10;7.40;;;4.40;1.00;5.60;101442.00;;;;5071248;28;20487;-75
2021/12/12 07:50:45;;;;;;;10.23;6.73;;;4.50;1.00;5.80;101445.00;;;;5037269;28;21098;-78
2021/12/12 07:53:14;;;;;;;7.80;6.60;;;4.50;1.00;5.80;101449.00;;;;5056513;28;20483;-77
2021/12/12 07:55:43;;;;;;;14.90;9.00;;;4.50;1.00;5.90;101414.00;;;;5055055;28;20487;-78
2021/12/12 07:58:17;;;;;;;12.13;7.80;;;4.50;1.00;5.80;101456.00;;;;5055658;28;20471;-80
2021/12/12 08:00:49;;;;;;;11.33;7.60;;;4.60;1.00;5.70;101454.00;;;;5049354;28;20486;-76
2021/12/12 08:03:23;;;;;;;11.10;7.30;;;4.60;1.00;5.70;101435.00;;;;5052637;28;20503;-79
2021/12/12 08:05:52;;;;;;;10.67;7.00;;;4.60;1.00;5.70;101436.00;;;;5047568;28;20455;-76
2021/12/12 08:08:22;;;;;;;10.40;6.87;;;4.60;1.00;5.70;101403.00;;;;5056583;28;20505;-77
2021/12/12 08:10:52;;;;;;;11.00;7.00;;;4.70;1.00;5.80;101437.00;;;;5056112;28;20466;-75
2021/12/12 08:13:21;;;;;;;9.60;7.00;;;4.60;1.00;5.80;101418.00;;;;5054657;28;20494;-75
2021/12/12 08:15:51;;;;;;;11.20;7.53;;;4.60;1.00;5.70;101390.00;;;;5055391;28;20509;-76
2021/12/12 08:18:22;;;;;;;12.23;7.10;;;4.60;1.00;5.70;101432.00;;;;5055264;28;20459;-75
2021/12/12 08:20:53;;;;;;;10.07;7.00;;;4.70;1.00;5.80;101433.00;;;;5056971;28;20475;-75
2021/12/12 08:23:23;;;;;;;9.70;7.13;;;4.60;1.00;5.80;101443.00;;;;5054811;28;20475;-77
2021/12/12 08:25:55;;;;;;;10.30;8.00;;;4.70;1.00;5.90;101401.00;;;;5042063;28;20452;-77
2021/12/12 08:28:24;;;;;;;14.07;6.67;;;4.70;1.00;6.00;101434.00;;;;5051280;28;20831;-76
2021/12/12 08:30:54;;;;;;;11.00;7.33;;;4.80;1.00;6.00;101447.00;;;;5053644;28;20448;-77
2021/12/12 08:33:24;;;;;;;10.50;7.00;;;4.80;1.00;6.10;101442.00;;;;5057072;28;20456;-76
2021/12/12 08:35:52;;;;;;;9.87;7.43;;;4.90;1.00;6.20;101439.00;;;;5056223;28;20447;-77
2021/12/12 08:38:21;;;;;;;10.53;7.97;;;4.90;1.00;6.30;101440.00;;;;5050554;28;20455;-73
2021/12/12 08:40:53;;;;;;;13.43;8.20;;;5.00;1.00;6.30;101438.00;;;;5038795;28;20463;-77
2021/12/12 08:43:24;;;;;;;12.17;6.80;;;5.00;1.00;6.20;101448.00;;;;5056918;28;20851;-76
2021/12/12 08:45:59;;;;;;;10.70;7.43;;;5.00;1.00;6.10;101430.00;;;;5051568;28;20453;-78
2021/12/12 08:48:36;;;;;;;8.60;7.80;;;5.00;1.00;6.40;101444.00;;;;5037792;28;20436;-75
2021/12/12 08:51:10;;;;;;;11.57;7.70;;;5.10;1.00;6.20;101445.00;;;;5055205;28;20958;-76
2021/12/12 08:53:39;;;;;;;9.20;7.57;;;5.20;1.00;6.30;101428.00;;;;5057000;28;20474;-76
2021/12/12 08:56:09;;;;;;;11.93;7.47;;;5.20;1.00;6.10;101396.00;;;;5037963;28;20452;-76
2021/12/12 08:58:38;;;;;;;8.80;7.40;;;5.20;1.00;6.20;101376.00;;;;5056891;28;20462;-76
2021/12/12 09:01:12;;;;;;;10.57;7.60;;;5.10;1.00;6.10;101437.00;;;;5056014;28;20821;-77
2021/12/12 09:03:45;;;;;;;8.50;7.40;;;5.10;1.00;6.10;101443.00;;;;5056985;28;20483;-76
2021/12/12 09:06:17;;;;;;;10.57;8.57;;;5.00;1.00;6.20;101464.00;;;;5044690;28;20959;-77
2021/12/12 09:08:52;;;;;;;11.40;8.10;;;5.00;1.00;6.30;101449.00;;;;5053214;28;20458;-77
2021/12/12 09:11:29;;;;;;;11.80;8.07;;;5.10;1.00;6.30;101455.00;;;;5058372;28;20490;-76
2021/12/12 09:14:03;;;;;;;10.37;8.20;;;5.10;1.00;6.30;101407.00;;;;5058643;28;21039;-76
2021/12/12 09:16:40;;;;;;;11.60;9.00;;;5.30;1.00;6.30;101446.00;;;;5037636;28;20524;-76
2021/12/12 09:19:13;;;;;;;11.53;8.37;;;5.20;1.00;6.40;101435.00;;;;5044251;28;21028;-77
2021/12/12 09:21:49;;;;;;;10.77;8.00;;;5.20;1.00;6.40;101458.00;;;;5077072;28;20459;-78
2021/12/12 09:24:32;;;;;;;11.53;8.87;;;5.20;1.00;6.40;101453.00;;;;5070616;28;20500;-77
2021/12/12 09:27:06;;;;;;;9.93;8.37;;;5.40;1.00;6.30;101467.00;;;;5056776;28;20431;-78
2021/12/12 09:29:42;;;;;;;12.00;8.13;;;5.40;1.00;6.40;101450.00;;;;5057505;28;20450;-77
2021/12/12 09:32:19;;;;;;;11.77;8.90;;;5.30;1.00;6.40;101455.00;;;;5056611;28;20485;-77
2021/12/12 09:35:01;;;;;;;10.47;8.33;;;5.30;1.00;6.30;101466.00;;;;5053200;28;20528;-77
2021/12/12 09:37:37;;;;;;;12.33;9.00;;;5.30;1.00;6.30;101452.00;;;;5057044;28;20448;-78
2021/12/12 09:40:21;;;;;;;11.30;9.53;;;5.30;1.00;6.40;101433.00;;;;5054925;28;20432;-76
2021/12/12 09:43:20;;;;;;;10.47;9.37;;;5.30;1.00;6.40;101453.00;;;;5056337;28;20498;-78
2021/12/12 09:46:20;;;;;;;9.60;8.60;;;5.40;1.00;6.50;101453.00;;;;5055129;28;20452;-78
2021/12/12 09:52:45;;;;;;;10.90;8.90;;;5.40;1.00;6.50;101404.00;;;;5057445;28;20574;-78
2021/12/12 09:55:16;;;;;;;12.30;9.27;;;5.40;1.00;6.60;101445.00;;;;5053514;28;20452;-75
2021/12/12 09:57:52;;;;;;;12.50;9.57;;;5.40;1.00;6.70;101440.00;;;;5042970;28;20505;-75
2021/12/12 10:00:29;;;;;;;13.10;9.00;;;5.50;1.00;6.60;101442.00;;;;5076841;28;20514;-75
2021/12/12 10:03:19;;;;;;;13.03;10.07;;;5.50;1.00;6.70;101444.00;;;;5060115;28;20507;-77
2021/12/12 10:06:09;;;;;;;13.40;9.80;;;5.50;1.00;6.80;101460.00;;;;5044781;28;20464;-78
2021/12/12 10:08:59;;;;;;;13.87;11.00;;;5.50;1.00;6.70;101457.00;;;;5049084;28;20453;-78
2021/12/12 10:11:38;;;;;;;12.77;10.83;;;5.50;1.00;6.70;101446.00;;;;5055547;28;20482;-77
2021/12/12 10:14:15;;;;;;;13.17;10.50;;;5.40;1.00;6.60;101460.00;;;;5033626;28;20487;-76
2021/12/12 10:16:51;;;;;;;12.90;10.60;;;5.40;1.00;6.60;101424.00;;;;5057631;28;20452;-76
2021/12/12 10:19:30;;;;;;;15.03;11.17;;;5.40;1.00;6.40;101453.00;;;;5055322;28;20451;-78
2021/12/12 10:22:23;;;;;;;10.97;9.97;;;5.30;1.00;6.40;101429.00;;;;5056119;28;20498;-78
2021/12/12 10:25:04;;;;;;;12.27;11.07;;;5.30;1.00;6.30;101423.00;;;;5035084;28;20959;-77
2021/12/12 10:27:42;;;;;;;13.50;10.70;;;5.20;1.00;6.30;101433.00;;;;5054035;28;20531;-77
2021/12/12 10:30:17;;;;;;;14.07;11.90;;;5.20;1.00;6.20;101430.00;;;;5044862;28;20569;-78
2021/12/12 10:32:59;;;;;;;11.53;10.33;;;5.30;1.00;6.50;101412.00;;;;5053983;28;20991;-78
2021/12/12 10:35:34;;;;;;;13.87;10.57;;;5.30;1.00;6.40;101432.00;;;;5041821;28;20452;-76
2021/12/12 10:38:11;;;;;;;14.67;11.53;;;5.30;1.00;6.50;101436.00;;;;5062459;28;20462;-77
2021/12/12 10:40:47;;;;;;;12.23;10.87;;;5.30;1.00;6.20;101436.00;;;;5048867;28;20498;-74
2021/12/12 10:43:23;;;;;;;15.90;11.80;;;5.20;1.00;6.20;101414.00;;;;5061332;28;20498;-76
2021/12/12 10:46:00;;;;;;;12.43;11.00;;;5.20;1.00;6.40;101427.00;;;;5061049;28;20486;-77
2021/12/12 10:48:40;;;;;;;13.30;11.40;;;5.10;1.00;6.50;101419.00;;;;5039827;28;20455;-78
2021/12/12 10:51:16;;;;;;;14.27;11.43;;;5.30;1.00;6.40;101407.00;;;;5050657;28;20466;-78
2021/12/12 10:53:58;;;;;;;18.00;12.33;;;5.30;1.00;6.50;101370.00;;;;5057655;28;20493;-77
2021/12/12 10:56:35;;;;;;;12.23;10.80;;;5.30;1.00;6.50;101395.00;;;;5045006;28;20458;-77
2021/12/12 10:59:23;;;;;;;15.60;11.37;;;5.30;1.00;6.50;101387.00;;;;5045990;28;20547;-76
2021/12/12 11:01:57;;;;;;;15.20;12.03;;;5.30;1.00;6.40;101395.00;;;;5053683;28;20459;-77
2021/12/12 11:04:40;;;;;;;18.20;11.27;;;5.30;1.00;6.50;101391.00;;;;5054872;28;20738;-77
2021/12/12 11:07:13;;;;;;;11.87;10.20;;;5.30;1.00;6.60;101399.00;;;;5049287;28;20452;-78
2021/12/12 11:09:53;;;;;;;11.27;10.00;;;5.30;1.00;6.50;101390.00;;;;5050592;28;20458;-76
2021/12/12 11:12:35;;;;;;;11.70;9.93;;;5.40;1.00;6.60;101386.00;;;;5053960;28;20486;-77
2021/12/12 11:15:08;;;;;;;15.27;11.10;;;5.40;1.00;6.40;101395.00;;;;5053291;28;20460;-77
2021/12/12 11:17:51;;;;;;;15.87;10.90;;;5.40;1.00;6.70;101378.00;;;;5058938;28;20505;-76
2021/12/12 11:20:23;;;;;;;16.03;11.93;;;5.50;1.00;6.60;101378.00;;;;5062044;28;20460;-77
2021/12/12 11:22:57;;;;;;;12.97;10.43;;;5.50;1.00;6.60;101393.00;;;;5043644;28;20558;-77
2021/12/12 11:25:32;;;;;;;14.37;10.27;;;5.60;1.00;6.60;101379.00;;;;5058185;28;20976;-77
2021/12/12 11:28:05;;;;;;;12.23;10.50;;;5.50;1.00;6.70;101362.00;;;;5054780;28;20470;-77
2021/12/12 11:30:40;;;;;;;12.90;10.20;;;5.60;1.00;6.60;101381.00;;;;5054955;28;20513;-77
2021/12/12 11:33:13;;;;;;;12.20;10.53;;;5.50;1.00;6.50;101345.00;;;;5065450;28;20507;-77
2021/12/12 11:35:48;;;;;;;12.87;10.10;;;5.50;1.00;6.50;101340.00;;;;5064674;28;20447;-77
2021/12/12 11:38:32;;;;;;;13.80;10.87;;;5.60;1.00;6.50;101376.00;;;;5066130;28;21010;-77
2021/12/12 11:41:09;;;;;;;12.13;10.83;;;5.50;1.00;6.60;101370.00;;;;5057733;28;20444;-78
2021/12/12 11:43:45;;;;;;;14.43;10.70;;;5.40;1.00;6.50;101384.00;;;;5047246;28;20821;-77
2021/12/12 11:46:20;;;;;;;12.60;10.13;;;5.60;1.00;6.60;101374.00;;;;5066535;28;20995;-79